Time;durP1;ratioP1;P1;durP2;ratioP2;P2;SDS_P1;SDS_P2;PMS_P1;PMS_P2;Temp;Humidity;BMP_temperature;BMP_pressure;BME280_temperature;BME280_humidity;BME280_pressure;Samples;Min_cycle;Max_cycle;Signal;HPM_P1;HPM_P2
2022/12/06 00:01:45;;;;;;;16.17;14.55;;;;;;;4.78;100.00;101926.25;5094405;28;20092;-65
2022/12/06 00:04:13;;;;;;;17.73;15.55;;;;;;;4.78;100.00;101931.50;5116913;27;20028;-65
2022/12/06 00:06:46;;;;;;;17.13;15.52;;;;;;;4.76;100.00;101929.81;5113485;28;20438;-65
2022/12/06 00:09:31;;;;;;;16.60;14.80;;;;;;;4.77;100.00;101926.28;5106111;28;20073;-66
2022/12/06 00:11:57;;;;;;;16.45;14.48;;;;;;;4.75;100.00;101926.31;5114897;28;20016;-65
2022/12/06 00:14:24;;;;;;;16.55;14.85;;;;;;;4.74;100.00;101913.19;5101631;28;20048;-65
2022/12/06 00:16:50;;;;;;;16.67;14.27;;;;;;;4.80;100.00;101920.09;5094154;28;20027;-65
2022/12/06 00:19:19;;;;;;;16.33;14.63;;;;;;;4.77;100.00;101926.28;5092630;28;20050;-65
2022/12/06 00:21:46;;;;;;;15.63;14.13;;;;;;;4.78;100.00;101917.47;5093878;28;20028;-65
2022/12/06 00:24:18;;;;;;;15.38;13.90;;;;;;;4.75;100.00;101913.13;5093901;28;20085;-65
2022/12/06 00:26:45;;;;;;;15.88;14.35;;;;;;;4.80;100.00;101926.22;5093667;28;20433;-65
2022/12/06 00:29:12;;;;;;;18.17;14.50;;;;;;;4.78;100.00;101925.38;5094008;28;20043;-65
2022/12/06 00:31:40;;;;;;;16.30;14.63;;;;;;;4.74;100.00;101910.53;5092344;28;20024;-65
2022/12/06 00:34:06;;;;;;;16.42;14.73;;;;;;;4.82;100.00;101910.34;5094076;28;20119;-65
2022/12/06 00:36:37;;;;;;;16.08;14.48;;;;;;;4.80;100.00;101918.31;5094916;28;20095;-65
2022/12/06 00:39:06;;;;;;;16.33;14.10;;;;;;;4.79;100.00;101916.56;5093403;28;20050;-65
2022/12/06 00:41:32;;;;;;;15.93;14.13;;;;;;;4.80;100.00;101922.72;5092893;28;20160;-65
2022/12/06 00:43:58;;;;;;;14.98;13.40;;;;;;;4.77;100.00;101919.25;5093519;28;20099;-65
2022/12/06 00:46:26;;;;;;;15.55;14.00;;;;;;;4.78;100.00;101925.38;5094381;28;20127;-65
2022/12/06 00:48:53;;;;;;;15.55;14.02;;;;;;;4.72;100.00;101910.56;5093300;28;20382;-65
2022/12/06 00:51:20;;;;;;;16.00;14.35;;;;;;;4.77;100.00;101921.88;5093482;28;20024;-65
2022/12/06 00:53:47;;;;;;;15.38;13.98;;;;;;;4.82;100.00;101928.81;5092810;28;20024;-65
2022/12/06 00:56:16;;;;;;;15.95;13.70;;;;;;;4.80;100.00;101920.09;5093404;28;20031;-65
2022/12/06 00:58:44;;;;;;;15.18;13.68;;;;;;;4.78;100.00;101923.59;5079574;28;20036;-65
2022/12/06 01:01:20;;;;;;;16.38;14.60;;;;;;;4.80;100.00;101915.69;5095403;28;20100;-65
2022/12/06 01:03:50;;;;;;;15.60;14.18;;;;;;;4.81;100.00;101919.19;5091226;28;20024;-65
2022/12/06 01:06:15;;;;;;;;;;;;;;;4.94;100.00;101915.34;5095254;28;20077;-65
2022/12/06 01:08:42;;;;;;;14.80;13.43;;;;;;;4.84;100.00;101921.75;5112982;28;19919;-65
2022/12/06 01:11:09;;;;;;;15.40;13.30;;;;;;;4.80;100.00;101920.09;5113437;28;20016;-65
2022/12/06 01:13:35;;;;;;;14.82;13.27;;;;;;;4.82;100.00;101920.91;5113554;28;20100;-65
2022/12/06 01:16:12;;;;;;;16.25;13.98;;;;;;;4.82;100.00;101919.13;5112761;28;20055;-65
2022/12/06 01:18:39;;;;;;;14.90;13.60;;;;;;;4.77;100.00;101919.25;5112042;27;20023;-65
2022/12/06 01:21:12;;;;;;;14.75;13.40;;;;;;;4.82;100.00;101918.25;5098335;28;20024;-65
2022/12/06 01:23:38;;;;;;;14.68;13.30;;;;;;;4.82;100.00;101928.81;5095804;28;20482;-65
2022/12/06 01:26:05;;;;;;;15.20;13.57;;;;;;;4.82;100.00;101923.53;5092714;28;20032;-65
2022/12/06 01:28:33;;;;;;;15.40;13.90;;;;;;;4.83;100.00;101920.88;5092843;28;20032;-65
2022/12/06 01:30:59;;;;;;;14.32;12.90;;;;;;;4.82;100.00;101924.41;5074912;28;20121;-65
2022/12/06 01:36:22;;;;;;;15.25;12.80;;;;;;;4.85;100.00;101920.84;5075578;22;20048;-64
2022/12/06 01:38:53;;;;;;;13.35;12.05;;;;;;;4.74;100.00;101914.03;5091794;28;20036;-65
2022/12/06 01:41:20;;;;;;;13.45;12.05;;;;;;;4.80;100.00;101913.03;5092664;28;20032;-65
2022/12/06 01:43:48;;;;;;;14.05;12.57;;;;;;;4.75;100.00;101926.31;5092838;28;20028;-65
2022/12/06 01:46:17;;;;;;;13.30;12.00;;;;;;;4.78;100.00;101920.97;5092032;28;20028;-65
2022/12/06 01:48:43;;;;;;;13.98;12.57;;;;;;;4.77;100.00;101915.75;5092135;28;20096;-65
2022/12/06 01:51:13;;;;;;;14.25;12.63;;;;;;;4.79;100.00;101908.66;5073683;28;20428;-65
2022/12/06 01:53:41;;;;;;;13.88;12.38;;;;;;;4.84;100.00;101917.34;5092072;28;20055;-65
2022/12/06 01:56:07;;;;;;;13.60;12.32;;;;;;;4.85;100.00;101918.19;5092675;28;20024;-65
2022/12/06 01:58:37;;;;;;;14.05;12.70;;;;;;;4.86;100.00;101917.31;5092444;28;20046;-65
2022/12/06 02:01:07;;;;;;;14.30;12.93;;;;;;;4.78;100.00;101906.94;5092191;28;20023;-65
2022/12/06 02:03:33;;;;;;;14.57;13.07;;;;;;;4.81;100.00;101906.84;5092152;28;20028;-65
2022/12/06 02:06:05;;;;;;;16.90;13.73;;;;;;;4.83;100.00;101920.03;5091900;28;20026;-65
2022/12/06 02:08:31;;;;;;;14.52;13.10;;;;;;;4.87;100.00;101916.41;5073548;28;20054;-65
2022/12/06 02:10:57;;;;;;;14.60;13.27;;;;;;;4.87;100.00;101914.63;5091884;28;20012;-65
2022/12/06 02:13:24;;;;;;;15.32;12.52;;;;;;;4.89;100.00;101917.25;5091520;28;20026;-65
2022/12/06 02:16:09;;;;;;;14.07;12.70;;;;;;;4.87;100.00;101911.13;5091690;28;20026;-65
2022/12/06 02:18:42;;;;;;;13.77;12.13;;;;;;;4.87;100.00;101909.34;5091501;28;20030;-65
2022/12/06 02:21:32;;;;;;;13.38;12.10;;;;;;;4.92;100.00;101915.41;5073737;28;20028;-65
2022/12/06 02:24:06;;;;;;;14.18;12.65;;;;;;;4.89;100.00;101914.59;5072637;28;20028;-65
2022/12/06 02:27:04;;;;;;;13.63;12.25;;;;;;;4.92;100.00;101915.41;5091499;28;20028;-65
2022/12/06 02:30:12;;;;;;;14.95;12.30;;;;;;;4.91;100.00;101907.50;5091833;28;20040;-65
2022/12/06 02:32:46;;;;;;;14.57;12.68;;;;;;;4.78;100.00;101913.06;4974060;28;20030;-65
2022/12/06 02:35:21;;;;;;;12.07;10.82;;;;;;;4.75;100.00;101907.00;5081821;28;20058;-64
2022/12/06 02:37:55;;;;;;;14.77;12.77;;;;;;;4.73;100.00;101903.50;5091169;28;20094;-65
2022/12/06 02:40:27;;;;;;;14.13;11.57;;;;;;;4.71;100.00;101902.69;5091355;28;20036;-65
2022/12/06 02:42:57;;;;;;;13.85;11.48;;;;;;;4.68;100.00;101906.28;5091818;28;20048;-65
2022/12/06 02:45:29;;;;;;;12.85;11.38;;;;;;;4.66;100.00;101902.78;5091554;28;20029;-65
2022/12/06 02:47:59;;;;;;;13.27;11.52;;;;;;;4.68;100.00;101902.78;5073647;28;20027;-65
2022/12/06 02:50:30;;;;;;;12.77;11.48;;;;;;;4.65;100.00;101895.81;5091481;28;20115;-65
2022/12/06 02:52:58;;;;;;;14.77;11.38;;;;;;;4.77;100.00;101903.44;5091317;28;20032;-65
2022/12/06 02:55:25;;;;;;;13.45;11.98;;;;;;;4.75;100.00;101897.31;5057197;28;20020;-65
2022/12/06 02:57:53;;;;;;;12.82;11.52;;;;;;;4.77;100.00;101895.53;5091184;28;20399;-65
2022/12/06 03:00:47;;;;;;;12.75;11.45;;;;;;;4.81;100.00;101898.94;5091316;28;20054;-64
2022/12/06 03:03:24;;;;;;;13.00;11.70;;;;;;;4.78;100.00;101893.75;5089146;28;20052;-65
2022/12/06 03:06:09;;;;;;;11.30;10.20;;;;;;;4.82;100.00;101899.81;5094660;28;20032;-65
2022/12/06 03:09:01;;;;;;;12.50;11.30;;;;;;;4.77;100.00;101890.25;5077030;28;20493;-65
2022/12/06 03:11:50;;;;;;;12.25;11.05;;;;;;;4.83;100.00;101899.78;5094390;28;20031;-65
2022/12/06 03:14:24;;;;;;;14.25;11.20;;;;;;;4.81;100.00;101895.47;5073756;28;20046;-64
2022/12/06 03:17:08;;;;;;;12.25;11.07;;;;;;;4.82;100.00;101895.41;5091540;28;20073;-64
2022/12/06 03:19:36;;;;;;;14.90;11.25;;;;;;;4.80;100.00;101899.88;5091383;28;20073;-65
2022/12/06 03:22:07;;;;;;;13.18;11.48;;;;;;;4.81;100.00;101898.09;5091115;28;20111;-64
2022/12/06 03:24:35;;;;;;;14.27;11.63;;;;;;;4.77;100.00;101894.66;5072883;28;20035;-65
2022/12/06 03:27:06;;;;;;;13.48;11.93;;;;;;;4.82;100.00;101907.72;5073227;28;20035;-65
2022/12/06 03:29:36;;;;;;;13.15;11.85;;;;;;;4.82;100.00;101905.09;5091455;28;20439;-65
2022/12/06 03:32:05;;;;;;;;;;;;;;;4.96;100.00;101905.66;5091201;28;20036;-65
2022/12/06 03:34:41;;;;;;;14.30;11.30;;;;;;;4.81;100.00;101898.94;5093429;28;19961;-65
2022/12/06 03:37:14;;;;;;;13.07;11.73;;;;;;;4.84;100.00;101904.16;5095057;28;20056;-65
2022/12/06 03:39:45;;;;;;;15.82;11.90;;;;;;;4.84;100.00;101904.16;5094402;28;20036;-65
2022/12/06 03:42:11;;;;;;;14.70;12.90;;;;;;;4.82;100.00;101898.03;5094846;28;20035;-65
2022/12/06 03:44:36;;;;;;;13.82;12.43;;;;;;;4.87;100.00;101898.81;5076677;28;20323;-65
2022/12/06 03:47:18;;;;;;;17.92;12.55;;;;;;;4.77;100.00;101895.53;5076589;28;20114;-64
2022/12/06 03:49:50;;;;;;;17.00;13.32;;;;;;;4.66;100.00;101876.44;5094869;28;20028;-65
2022/12/06 03:52:17;;;;;;;17.73;12.27;;;;;;;4.80;100.00;101901.63;5076421;28;20115;-65
2022/12/06 03:54:42;;;;;;;15.25;12.60;;;;;;;4.82;100.00;101898.03;5091949;28;20028;-65
2022/12/06 03:57:08;;;;;;;14.73;13.00;;;;;;;4.82;100.00;101908.59;5076149;28;20441;-65
2022/12/06 03:59:33;;;;;;;15.07;13.35;;;;;;;4.83;100.00;101902.44;5076469;28;20042;-64
2022/12/06 04:02:01;;;;;;;15.65;13.40;;;;;;;4.80;100.00;101902.50;5062723;28;20062;-65
2022/12/06 04:04:27;;;;;;;18.35;14.32;;;;;;;4.84;100.00;101901.53;5076293;28;20051;-65
2022/12/06 04:06:54;;;;;;;17.20;13.80;;;;;;;4.81;100.00;101903.38;5093206;28;20067;-65
2022/12/06 04:12:59;;;;;;;17.58;13.85;;;;;;;4.80;100.00;101896.38;5093775;28;20070;-65
2022/12/06 04:14:52;;;;;;;16.92;14.18;;;;;;;4.80;100.00;101899.00;5093182;28;20479;-64
2022/12/06 04:20:03;;;;;;;19.40;13.98;;;;;;;4.83;100.00;101893.66;5094469;28;20085;-65
2022/12/06 04:25:13;;;;;;;17.00;13.95;;;;;;;4.83;100.00;101898.94;5093686;28;20054;-65
2022/12/06 04:38:40;;;;;;;21.65;14.98;;;;;;;4.73;100.00;101899.09;5075220;28;20042;-65
2022/12/06 04:41:06;;;;;;;19.05;14.85;;;;;;;4.75;100.00;101904.38;5059291;28;20027;-65
2022/12/06 04:43:40;;;;;;;20.02;14.57;;;;;;;4.82;100.00;101913.00;5075545;28;20028;-65
2022/12/06 04:46:06;;;;;;;18.73;15.52;;;;;;;4.80;100.00;101909.53;5075528;28;20399;-65
2022/12/06 04:48:31;;;;;;;22.17;15.60;;;;;;;4.77;100.00;101903.44;5092634;28;20024;-65
2022/12/06 04:50:56;;;;;;;23.25;14.57;;;;;;;4.72;100.00;101896.53;5075333;28;20028;-65
2022/12/06 04:53:22;;;;;;;17.75;14.55;;;;;;;4.73;100.00;101903.50;5092378;28;20058;-65
2022/12/06 04:55:48;;;;;;;20.02;14.80;;;;;;;4.76;100.00;101901.72;5093087;28;20427;-65
2022/12/06 04:58:15;;;;;;;21.23;14.50;;;;;;;4.74;100.00;101898.22;5078363;28;20505;-65
2022/12/06 05:00:46;;;;;;;19.70;14.77;;;;;;;4.71;100.00;101889.53;5091705;28;20024;-64
2022/12/06 05:03:13;;;;;;;22.27;15.10;;;;;;;4.76;100.00;101893.81;5093515;28;20420;-67
2022/12/06 05:05:39;;;;;;;22.25;15.10;;;;;;;4.76;100.00;101893.81;5093034;28;20024;-65
2022/12/06 05:08:04;;;;;;;22.08;14.95;;;;;;;4.75;100.00;101899.94;5092328;28;20028;-65
2022/12/06 05:10:30;;;;;;;18.85;15.23;;;;;;;4.76;100.00;101901.72;5074673;28;20036;-65
2022/12/06 05:12:55;;;;;;;21.33;14.85;;;;;;;4.75;100.00;101894.69;5091618;28;20123;-64
2022/12/06 05:15:21;;;;;;;20.48;14.25;;;;;;;4.75;100.00;101897.31;5074802;28;20483;-65
2022/12/06 05:17:49;;;;;;;18.45;14.50;;;;;;;4.75;100.00;101899.94;5057839;28;20035;-64
2022/12/06 05:20:15;;;;;;;27.45;14.70;;;;;;;4.79;100.00;101892.84;5090515;28;20368;-64
2022/12/06 05:22:40;;;;;;;21.40;14.00;;;;;;;4.77;100.00;101887.63;5074708;28;20039;-65
2022/12/06 05:25:06;;;;;;;26.50;15.13;;;;;;;4.74;100.00;101900.88;5092707;28;20546;-65
2022/12/06 05:27:32;;;;;;;24.15;14.15;;;;;;;4.73;100.00;101888.56;5093243;28;20111;-65
2022/12/06 05:29:59;;;;;;;19.65;12.90;;;;;;;4.78;100.00;101899.03;5093044;28;20039;-64
2022/12/06 05:32:25;;;;;;;18.52;13.13;;;;;;;4.78;100.00;101899.03;5074946;28;20020;-65
2022/12/06 05:34:50;;;;;;;21.63;14.20;;;;;;;4.82;100.00;101892.78;5074400;28;20097;-65
2022/12/06 05:37:16;;;;;;;23.17;13.70;;;;;;;4.82;100.00;101894.53;5074507;28;20044;-65
2022/12/06 05:39:44;;;;;;;24.42;14.40;;;;;;;4.77;100.00;101900.78;5057620;28;20043;-65
2022/12/06 05:42:10;;;;;;;20.25;13.27;;;;;;;4.77;100.00;101894.66;5092426;28;20047;-65
2022/12/06 05:44:36;;;;;;;18.67;14.27;;;;;;;4.76;100.00;101887.63;5074021;28;20070;-65
2022/12/06 05:47:02;;;;;;;21.30;13.63;;;;;;;4.77;100.00;101890.25;5092545;28;20032;-65
2022/12/06 05:49:29;;;;;;;19.55;13.20;;;;;;;4.79;100.00;101887.56;5091838;28;20444;-64
2022/12/06 05:51:55;;;;;;;18.48;12.35;;;;;;;4.74;100.00;101892.09;5092493;28;20046;-65
2022/12/06 05:54:21;;;;;;;22.23;12.48;;;;;;;4.78;100.00;101891.97;5091471;28;20028;-64
2022/12/06 05:56:48;;;;;;;15.68;11.98;;;;;;;4.73;100.00;101892.97;5091691;28;20390;-65
2022/12/06 05:59:16;;;;;;;15.60;12.02;;;;;;;4.77;100.00;101892.88;5074074;28;20034;-65
2022/12/06 06:01:42;;;;;;;16.98;11.63;;;;;;;4.74;100.00;101894.72;5092547;28;20035;-65
2022/12/06 06:04:07;;;;;;;18.95;12.65;;;;;;;4.72;100.00;101900.03;5092260;28;20031;-65
2022/12/06 06:06:33;;;;;;;18.17;12.38;;;;;;;4.79;100.00;101895.47;5073948;28;20036;-65
2022/12/06 06:08:58;;;;;;;21.33;11.93;;;;;;;4.73;100.00;101890.34;5073184;28;20032;-64
2022/12/06 06:11:24;;;;;;;18.67;12.38;;;;;;;4.72;100.00;101901.78;5091744;28;20128;-64
2022/12/06 06:13:53;;;;;;;17.05;11.82;;;;;;;4.74;100.00;101895.59;5091856;28;20077;-65
2022/12/06 06:16:19;;;;;;;15.48;11.70;;;;;;;4.75;100.00;101894.69;5074154;28;20016;-65
2022/12/06 06:18:45;;;;;;;16.67;12.05;;;;;;;4.71;100.00;101884.25;5091906;28;20027;-65
2022/12/06 06:21:10;;;;;;;16.02;11.77;;;;;;;4.76;100.00;101895.53;5091021;28;20501;-64
2022/12/06 06:23:36;;;;;;;20.08;11.93;;;;;;;4.72;100.00;101897.38;5075678;28;20198;-65
2022/12/06 06:26:07;;;;;;;22.20;12.38;;;;;;;4.69;100.00;101896.59;5091955;28;20030;-65
2022/12/06 06:28:32;;;;;;;15.43;12.20;;;;;;;4.73;100.00;101899.09;5091750;28;20036;-65
2022/12/06 06:31:01;;;;;;;15.23;12.52;;;;;;;4.73;100.00;101903.50;5092035;28;20457;-64
2022/12/06 06:33:27;;;;;;;13.27;11.88;;;;;;;4.71;100.00;101893.03;5091548;28;20039;-65
2022/12/06 06:35:55;;;;;;;18.83;12.20;;;;;;;4.72;100.00;101891.25;5074150;28;20032;-65
2022/12/06 06:38:21;;;;;;;17.00;12.70;;;;;;;4.72;100.00;101894.75;5090949;28;20051;-65
2022/12/06 06:40:49;;;;;;;17.88;12.38;;;;;;;4.72;100.00;101897.38;5092394;28;20032;-65
2022/12/06 06:43:19;;;;;;;18.00;11.98;;;;;;;4.67;100.00;101888.69;5095377;28;20024;-65
2022/12/06 06:46:01;;;;;;;17.92;12.50;;;;;;;4.74;100.00;101898.22;5059769;28;20140;-65
2022/12/06 06:48:35;;;;;;;17.77;11.80;;;;;;;4.68;100.00;101890.47;5074230;28;20376;-64
2022/12/06 06:51:06;;;;;;;21.58;12.43;;;;;;;4.71;100.00;101895.66;5091335;28;20433;-65
2022/12/06 06:53:32;;;;;;;16.17;11.93;;;;;;;4.67;100.00;101896.59;5090826;28;20549;-64
2022/12/06 06:55:58;;;;;;;20.27;12.70;;;;;;;4.66;100.00;101888.75;5068255;28;20027;-65
2022/12/06 06:58:26;;;;;;;18.25;13.05;;;;;;;4.60;100.00;101892.38;5091052;28;20495;-65
2022/12/06 07:00:59;;;;;;;16.83;12.35;;;;;;;4.60;100.00;101892.38;5091557;28;20024;-65
2022/12/06 07:03:26;;;;;;;18.05;12.02;;;;;;;4.58;100.00;101890.69;5091715;28;20020;-65
2022/12/06 07:05:53;;;;;;;16.35;11.50;;;;;;;4.52;100.00;101887.28;5073381;28;20041;-65
2022/12/06 07:08:19;;;;;;;15.82;11.70;;;;;;;4.55;100.00;101889.84;5091091;28;20020;-65
2022/12/06 07:10:47;;;;;;;16.20;11.93;;;;;;;4.45;100.00;101893.56;5095783;28;20378;-64
2022/12/06 07:13:17;;;;;;;16.27;12.30;;;;;;;4.48;100.00;101887.38;5077922;28;20032;-64
2022/12/06 07:15:43;;;;;;;16.75;12.48;;;;;;;4.45;100.00;101892.72;5095887;28;20016;-65
2022/12/06 07:18:09;;;;;;;18.27;12.65;;;;;;;4.39;100.00;101895.47;5094949;28;20042;-65
2022/12/06 07:20:35;;;;;;;18.27;11.77;;;;;;;4.38;100.00;101893.72;5095295;28;20038;-64
2022/12/06 07:23:00;;;;;;;18.48;11.88;;;;;;;4.28;100.00;101896.53;5094837;28;20111;-64
2022/12/06 07:25:26;;;;;;;14.95;11.43;;;;;;;4.21;100.00;101901.97;5076994;28;20032;-64
2022/12/06 07:27:51;;;;;;;16.23;12.10;;;;;;;4.25;100.00;101907.16;5094653;28;20063;-64
2022/12/06 07:30:17;;;;;;;19.52;11.82;;;;;;;4.25;100.00;101898.38;5080119;28;20402;-65
2022/12/06 07:32:43;;;;;;;14.00;11.50;;;;;;;4.29;100.00;101903.56;5095286;28;20066;-65
2022/12/06 07:35:09;;;;;;;18.98;11.55;;;;;;;4.26;100.00;101908.88;5094682;28;20452;-64
2022/12/06 07:37:35;;;;;;;16.85;11.52;;;;;;;4.29;100.00;101914.09;5095093;28;20130;-65
2022/12/06 07:40:00;;;;;;;15.32;11.40;;;;;;;4.29;100.00;101903.56;5076776;28;20140;-65
2022/12/06 07:45:13;;;;;;;16.67;11.77;;;;;;;4.28;100.00;101907.06;5094092;28;20463;-64
2022/12/06 07:47:41;;;;;;;16.95;11.82;;;;;;;4.25;100.00;101896.59;5076565;28;20024;-64
2022/12/06 07:50:09;;;;;;;17.10;11.95;;;;;;;4.27;100.00;101909.75;5076560;28;20035;-64
2022/12/06 07:52:36;;;;;;;18.80;11.85;;;;;;;4.27;100.00;101910.63;5095530;28;20066;-64
2022/12/06 07:55:03;;;;;;;14.18;11.40;;;;;;;4.27;100.00;101917.66;5093368;28;20024;-64
2022/12/06 07:57:28;;;;;;;14.93;11.73;;;;;;;4.31;100.00;101920.19;5093534;28;20028;-64
2022/12/06 07:59:54;;;;;;;18.38;11.93;;;;;;;4.30;100.00;101926.38;5093817;28;20380;-64
2022/12/06 08:02:24;;;;;;;15.00;11.85;;;;;;;4.27;100.00;101929.06;5059839;28;20428;-64
2022/12/06 08:04:50;;;;;;;15.55;11.52;;;;;;;4.29;100.00;101922.00;5094290;28;20024;-64
2022/12/06 08:07:15;;;;;;;16.77;11.77;;;;;;;4.32;100.00;101923.69;5078657;28;20024;-65
2022/12/06 08:09:43;;;;;;;16.05;11.65;;;;;;;4.37;100.00;101924.47;5093616;28;20035;-65
2022/12/06 08:12:11;;;;;;;16.75;11.95;;;;;;;4.37;100.00;101927.09;5076928;28;20032;-68
2022/12/06 08:14:37;;;;;;;14.80;11.88;;;;;;;4.39;100.00;101927.09;5092942;28;20043;-68
2022/12/06 08:17:03;;;;;;;14.85;11.50;;;;;;;4.35;100.00;101920.13;5094159;28;20028;-68
2022/12/06 08:19:31;;;;;;;14.48;11.35;;;;;;;4.36;100.00;101930.66;5093432;28;20027;-66
2022/12/06 08:21:56;;;;;;;14.52;11.20;;;;;;;4.41;100.00;101923.53;5093291;28;20723;-68
2022/12/06 08:24:22;;;;;;;16.92;11.57;;;;;;;4.44;100.00;101928.72;5076444;28;20123;-69
2022/12/06 08:26:49;;;;;;;14.52;11.43;;;;;;;4.45;100.00;101934.84;5041203;28;20043;-68
2022/12/06 08:29:15;;;;;;;12.98;10.60;;;;;;;4.48;100.00;101929.53;5073913;28;20449;-68
2022/12/06 08:31:41;;;;;;;11.90;10.45;;;;;;;4.49;100.00;101916.31;5055238;28;20032;-68
2022/12/06 08:34:06;;;;;;;17.95;10.15;;;;;;;4.38;100.00;101899.00;5094582;28;20127;-69
2022/12/06 08:36:32;;;;;;;15.27;10.38;;;;;;;4.51;100.00;101916.28;5092948;28;20060;-67
2022/12/06 08:39:00;;;;;;;15.07;10.57;;;;;;;4.58;100.00;101925.78;5075351;28;20043;-67
2022/12/06 08:44:13;;;;;;;11.82;10.27;;;;;;;4.56;100.00;101927.63;5093236;28;20038;-68
2022/12/06 08:46:39;;;;;;;10.85;9.73;;;;;;;4.50;100.00;101938.25;5077911;28;20497;-68
2022/12/06 08:49:05;;;;;;;22.20;9.75;;;;;;;4.44;100.00;101923.47;5092919;28;20031;-68
2022/12/06 08:51:32;;;;;;;12.10;9.88;;;;;;;4.42;100.00;101922.63;5092408;28;20028;-67
2022/12/06 08:54:01;;;;;;;12.50;10.57;;;;;;;4.43;100.00;101923.47;5087807;28;20034;-68
2022/12/06 08:56:27;;;;;;;14.23;9.65;;;;;;;4.42;100.00;101932.28;5084855;28;20458;-67
2022/12/06 08:58:54;;;;;;;12.20;10.00;;;;;;;4.35;100.00;101933.28;5092469;28;20038;-68
2022/12/06 09:01:26;;;;;;;11.50;9.63;;;;;;;4.36;100.00;101940.31;5091771;28;20024;-68
2022/12/06 09:03:52;;;;;;;12.75;9.35;;;;;;;4.27;100.00;101938.72;5073945;28;20023;-68
2022/12/06 09:06:21;;;;;;;13.05;9.52;;;;;;;4.29;100.00;101937.81;5091583;28;20039;-67
2022/12/06 09:08:47;;;;;;;16.23;10.55;;;;;;;4.32;100.00;101936.84;5091699;28;20023;-68
2022/12/06 09:11:16;;;;;;;13.68;10.75;;;;;;;4.35;100.00;101946.47;5092692;28;20056;-68
2022/12/06 09:13:44;;;;;;;16.67;10.35;;;;;;;4.31;100.00;101940.38;5092458;28;20023;-68
2022/12/06 09:16:14;;;;;;;16.48;10.10;;;;;;;4.35;100.00;101946.47;5092030;28;20135;-68
2022/12/06 09:18:40;;;;;;;14.50;10.68;;;;;;;4.47;100.00;101948.84;5092139;28;20028;-68
2022/12/06 09:21:07;;;;;;;14.02;10.80;;;;;;;4.50;100.00;101949.69;5074215;28;21483;-68
2022/12/06 09:23:33;;;;;;;17.02;11.23;;;;;;;4.56;100.00;101951.31;5092504;28;20028;-67
2022/12/06 09:26:03;;;;;;;14.38;10.82;;;;;;;4.60;100.00;101949.47;5092473;28;20035;-67
2022/12/06 09:28:30;;;;;;;13.55;10.30;;;;;;;4.65;100.00;101951.13;5092957;28;20074;-68
2022/12/06 09:30:56;;;;;;;14.18;10.77;;;;;;;4.62;100.00;101951.19;5092765;28;20106;-67
2022/12/06 09:33:23;;;;;;;12.85;11.20;;;;;;;4.67;100.00;101956.34;5092759;28;20035;-68
2022/12/06 09:35:50;;;;;;;14.98;10.57;;;;;;;4.73;100.00;101950.94;5073385;28;20032;-66
2022/12/06 09:38:17;;;;;;;11.55;9.13;;;;;;;4.78;100.00;101951.72;5092222;28;20453;-66
2022/12/06 09:40:57;;;;;;;13.35;10.05;;;;;;;4.87;100.00;101948.03;5092848;28;20039;-67
2022/12/06 09:43:25;;;;;;;11.02;9.65;;;;;;;4.86;100.00;101944.53;5074365;28;20024;-68
2022/12/06 09:45:53;;;;;;;14.73;9.60;;;;;;;4.99;100.00;101950.41;5091936;28;20024;-67
2022/12/06 09:48:33;;;;;;;12.20;9.70;;;;;;;5.22;100.00;101944.59;5092226;28;20028;-67
2022/12/06 09:51:07;;;;;;;10.48;9.23;;;;;;;5.35;100.00;101953.09;5074216;28;20039;-67
2022/12/06 09:53:54;;;;;;;10.77;8.52;;;;;;;5.42;100.00;101952.06;5091673;28;20020;-67
2022/12/06 09:56:24;;;;;;;11.70;8.80;;;;;;;5.39;99.61;101957.41;5092259;28;20395;-68
2022/12/06 09:59:09;;;;;;;9.80;8.20;;;;;;;5.64;99.07;101953.25;5092191;28;20024;-68
2022/12/06 10:01:50;;;;;;;13.45;8.48;;;;;;;5.83;98.00;101950.19;5074350;28;20038;-67
2022/12/06 10:04:45;;;;;;;10.18;8.00;;;;;;;5.88;97.00;101949.16;5091771;28;20385;-68
2022/12/06 10:07:23;;;;;;;14.00;8.25;;;;;;;5.88;96.98;101956.19;5092041;28;20039;-67
2022/12/06 10:10:46;;;;;;;9.43;7.80;;;;;;;6.03;96.94;101944.38;5091636;28;20031;-67
2022/12/06 10:13:38;;;;;;;10.75;8.35;;;;;;;5.91;97.30;101934.97;4971196;28;20042;-67
2022/12/06 10:16:32;;;;;;;13.63;8.23;;;;;;;6.36;96.89;101939.97;4970696;28;20041;-67
2022/12/06 10:19:10;;;;;;;8.15;7.25;;;;;;;6.66;94.16;101934.72;5072925;28;20043;-67
2022/12/06 10:21:39;;;;;;;9.40;8.23;;;;;;;6.91;90.88;101935.75;5074283;28;20028;-67
2022/12/06 10:24:36;;;;;;;8.52;7.40;;;;;;;7.34;91.48;101933.53;5091141;28;20040;-67
2022/12/06 10:27:09;;;;;;;9.48;7.07;;;;;;;7.70;87.89;101934.94;5053509;28;20040;-68
2022/12/06 10:29:54;;;;;;;7.70;6.47;;;;;;;8.15;86.35;101929.00;5091910;28;20471;-68
2022/12/06 10:32:42;;;;;;;7.30;5.97;;;;;;;8.08;85.25;101929.25;5073599;28;20114;-69
2022/12/06 10:35:36;;;;;;;8.82;6.35;;;;;;;8.00;85.32;101924.25;5070899;28;20039;-67
2022/12/06 10:38:12;;;;;;;9.05;6.20;;;;;;;8.48;82.81;101931.38;5070926;28;20053;-67
2022/12/06 10:40:49;;;;;;;12.20;5.53;;;;;;;8.60;83.02;101935.38;5071414;28;20055;-69
2022/12/06 10:43:28;;;;;;;8.27;5.38;;;;;;;8.68;78.72;101935.06;5055534;28;20139;-67
2022/12/06 10:48:58;;;;;;;6.35;4.72;;;;;;;9.53;78.57;101941.47;5091371;28;20089;-68
2022/12/06 10:51:33;;;;;;;6.15;4.20;;;;;;;9.70;74.40;101938.94;5091530;28;20106;-67
2022/12/06 10:54:11;;;;;;;7.80;3.97;;;;;;;10.07;74.12;101937.38;5090791;28;20478;-68
2022/12/06 10:56:40;;;;;;;6.40;4.00;;;;;;;10.35;72.47;101942.41;5091417;28;20541;-67
2022/12/06 10:59:44;;;;;;;5.68;3.90;;;;;;;10.39;74.75;101943.97;5073475;28;20020;-69
2022/12/06 11:02:52;;;;;;;6.20;3.92;;;;;;;10.18;74.82;101942.25;5053124;28;20099;-69
2022/12/06 11:05:56;;;;;;;5.70;4.25;;;;;;;10.11;74.72;101946.94;5073065;28;20525;-68
2022/12/06 11:08:32;;;;;;;4.63;3.63;;;;;;;9.84;73.34;101940.16;5086303;28;20067;-67
2022/12/06 11:11:00;;;;;;;6.20;3.90;;;;;;;9.71;71.77;101945.16;5091383;28;20055;-67
2022/12/06 11:13:58;;;;;;;5.90;3.92;;;;;;;9.69;73.55;101944.34;5091304;28;20364;-66
2022/12/06 11:16:29;;;;;;;7.95;4.28;;;;;;;9.52;72.32;101937.91;5083977;28;20128;-67
2022/12/06 11:18:59;;;;;;;11.70;3.80;;;;;;;9.44;70.97;101941.81;5073347;28;20566;-68
2022/12/06 11:22:00;;;;;;;5.32;3.97;;;;;;;9.60;73.65;101937.63;5091185;28;20027;-68
2022/12/06 11:24:41;;;;;;;4.55;4.15;;;;;;;9.78;72.35;101931.53;5032220;28;20040;-68
2022/12/06 11:27:14;;;;;;;4.53;4.03;;;;;;;9.90;72.17;101938.09;5073182;28;20237;-68
2022/12/06 11:29:41;;;;;;;6.35;3.80;;;;;;;10.10;69.52;101917.78;5091405;28;20043;-67
2022/12/06 11:32:08;;;;;;;5.45;3.97;;;;;;;10.22;68.58;101930.53;5090833;28;20039;-67
2022/12/06 11:34:45;;;;;;;6.55;4.03;;;;;;;9.92;70.68;101932.75;5073261;28;20395;-68
2022/12/06 11:37:19;;;;;;;8.00;4.32;;;;;;;9.26;69.71;101932.81;5091042;28;20024;-67
2022/12/06 11:39:48;;;;;;;5.28;4.00;;;;;;;9.42;69.56;101925.09;5091148;28;20386;-67
2022/12/06 11:42:23;;;;;;;4.68;3.45;;;;;;;9.75;70.38;101922.81;5090796;28;20019;-65
2022/12/06 11:45:05;;;;;;;6.57;4.00;;;;;;;9.88;69.46;101923.16;5090775;28;20028;-67
2022/12/06 11:47:31;;;;;;;5.05;3.58;;;;;;;10.09;69.71;101908.06;5091000;28;20024;-67
2022/12/06 11:49:57;;;;;;;6.25;3.60;;;;;;;9.96;67.46;101915.72;5090751;28;20173;-67
2022/12/06 11:52:34;;;;;;;4.13;3.25;;;;;;;10.08;68.21;101909.00;5090940;28;20494;-66
2022/12/06 11:55:05;;;;;;;4.03;3.63;;;;;;;10.17;68.93;101904.13;5092065;28;20433;-67
2022/12/06 11:57:39;;;;;;;6.18;3.20;;;;;;;10.10;68.42;101905.34;5094727;28;20099;-67
2022/12/06 12:00:35;;;;;;;6.03;3.80;;;;;;;10.02;69.32;101900.38;5094438;28;20044;-66
2022/12/06 12:03:00;;;;;;;4.55;3.65;;;;;;;9.40;68.23;101892.44;5056223;28;20044;-67